This is the latest recevied weather packets stored in our database for station/object YG2BMZ. If no packets are shown the sender has not sent any weather packets the latest 1 day(s).
| Time | Temp. | Humidity | Pressure | Rain* | Wind** | Luminosity | Snow |
|---|---|---|---|---|---|---|---|
| 1778086394 | 31.67° C | 78% | 1020.3 hPa | - | - | - | - |
| 1778083079 | 31.67° C | 79% | 1020.3 hPa | - | - | - | - |
| 1778077966 | 32.78° C | 75% | 1020.4 hPa | - | - | - | - |
| 1778076764 | 32.78° C | 75% | 1020.4 hPa | - | - | - | - |
| 1778076161 | 32.78° C | 75% | 1020.5 hPa | - | - | - | - |
| 1778073753 | 32.78° C | 74% | 1020 hPa | - | - | - | - |
| 1778072248 | 33.33° C | 73% | 1019.7 hPa | - | - | - | - |
| 1778071345 | 33.33° C | 72% | 1019.5 hPa | - | - | - | - |
| 1778069235 | 33.33° C | 71% | 1018.8 hPa | - | - | - | - |
| 1778068935 | 33.33° C | 71% | 1018.6 hPa | - | - | - | - |
| 1778068632 | 33.33° C | 71% | 1018.6 hPa | - | - | - | - |
| 1778068331 | 33.33° C | 71% | 1018.5 hPa | - | - | - | - |
| 1778065621 | 33.89° C | 70% | 1018 hPa | - | - | - | - |
| 1778065021 | 33.89° C | 69% | 1017.8 hPa | - | - | - | - |
| 1778064718 | 33.89° C | 69% | 1017.7 hPa | - | - | - | - |
| 1778063213 | 33.89° C | 68% | 1017.2 hPa | - | - | - | - |
| 1778062912 | 33.89° C | 68% | 1017.1 hPa | - | - | - | - |
| 1778062612 | 33.89° C | 68% | 1017.1 hPa | - | - | - | - |
| 1778026970 | 30.56° C | 81% | 1021 hPa | - | - | - | - |
| 1778026668 | 30.56° C | 81% | 1021 hPa | - | - | - | - |
| 1778026066 | 30° C | 82% | 1020.9 hPa | - | - | - | - |
| 1778024559 | 30° C | 84% | 1020.6 hPa | - | - | - | - |
| 1778022753 | 30° C | 83% | 1020.4 hPa | - | - | - | - |
| 1778021850 | 30° C | 83% | 1020.4 hPa | - | - | - | - |
| 1778021548 | 30° C | 83% | 1020.3 hPa | - | - | - | - |
* Rain since midnight (hover to see other rain measurements)
** Current wind speed in m/s (hover to see current wind gust speed)